sensor_id;sensor_type;location;lat;lon;timestamp;P1;durP1;ratioP1;P2;durP2;ratioP2
28311;SDS011;15572;48.810;9.148;2022-12-07T00:00:54;13.83;;;9.20;;
28311;SDS011;15572;48.810;9.148;2022-12-07T00:05:52;13.57;;;8.87;;
28311;SDS011;15572;48.810;9.148;2022-12-07T00:10:48;14.40;;;9.63;;
28311;SDS011;15572;48.810;9.148;2022-12-07T00:15:46;15.40;;;10.07;;
28311;SDS011;15572;48.810;9.148;2022-12-07T00:20:42;15.27;;;10.17;;
28311;SDS011;15572;48.810;9.148;2022-12-07T00:25:39;14.67;;;9.90;;
28311;SDS011;15572;48.810;9.148;2022-12-07T00:30:35;14.47;;;9.43;;
28311;SDS011;15572;48.810;9.148;2022-12-07T00:35:33;13.97;;;9.23;;
28311;SDS011;15572;48.810;9.148;2022-12-07T00:40:30;15.93;;;10.00;;
28311;SDS011;15572;48.810;9.148;2022-12-07T00:45:26;16.57;;;10.07;;
28311;SDS011;15572;48.810;9.148;2022-12-07T00:50:23;15.03;;;10.57;;
28311;SDS011;15572;48.810;9.148;2022-12-07T00:55:20;14.97;;;10.10;;
28311;SDS011;15572;48.810;9.148;2022-12-07T01:00:17;16.70;;;10.93;;
28311;SDS011;15572;48.810;9.148;2022-12-07T01:05:14;15.73;;;10.93;;
28311;SDS011;15572;48.810;9.148;2022-12-07T01:10:10;20.53;;;12.00;;
28311;SDS011;15572;48.810;9.148;2022-12-07T01:15:09;18.83;;;10.90;;
28311;SDS011;15572;48.810;9.148;2022-12-07T01:20:06;20.13;;;11.73;;
28311;SDS011;15572;48.810;9.148;2022-12-07T01:25:04;17.77;;;10.83;;
28311;SDS011;15572;48.810;9.148;2022-12-07T01:30:01;17.33;;;11.00;;
28311;SDS011;15572;48.810;9.148;2022-12-07T01:35:00;16.50;;;10.90;;
28311;SDS011;15572;48.810;9.148;2022-12-07T01:39:57;15.03;;;10.50;;
28311;SDS011;15572;48.810;9.148;2022-12-07T01:50:33;16.93;;;10.63;;
28311;SDS011;15572;48.810;9.148;2022-12-07T01:55:31;16.27;;;10.57;;
28311;SDS011;15572;48.810;9.148;2022-12-07T02:00:28;14.70;;;9.63;;
28311;SDS011;15572;48.810;9.148;2022-12-07T02:05:24;16.30;;;10.77;;
28311;SDS011;15572;48.810;9.148;2022-12-07T02:10:24;14.47;;;8.67;;
28311;SDS011;15572;48.810;9.148;2022-12-07T02:15:23;17.07;;;9.30;;
28311;SDS011;15572;48.810;9.148;2022-12-07T02:20:28;16.17;;;10.53;;
28311;SDS011;15572;48.810;9.148;2022-12-07T02:25:33;15.83;;;8.93;;
28311;SDS011;15572;48.810;9.148;2022-12-07T02:30:46;15.50;;;8.90;;
28311;SDS011;15572;48.810;9.148;2022-12-07T02:35:48;15.30;;;9.30;;
28311;SDS011;15572;48.810;9.148;2022-12-07T02:40:52;16.50;;;10.17;;
28311;SDS011;15572;48.810;9.148;2022-12-07T02:45:52;15.53;;;9.70;;
28311;SDS011;15572;48.810;9.148;2022-12-07T02:50:53;19.37;;;9.80;;
28311;SDS011;15572;48.810;9.148;2022-12-07T02:55:50;13.77;;;9.60;;
28311;SDS011;15572;48.810;9.148;2022-12-07T03:00:50;16.97;;;10.37;;
28311;SDS011;15572;48.810;9.148;2022-12-07T03:05:59;14.93;;;9.50;;
28311;SDS011;15572;48.810;9.148;2022-12-07T03:11:06;14.67;;;9.57;;
28311;SDS011;15572;48.810;9.148;2022-12-07T03:16:07;13.77;;;9.03;;
28311;SDS011;15572;48.810;9.148;2022-12-07T03:21:09;13.80;;;8.93;;
28311;SDS011;15572;48.810;9.148;2022-12-07T03:26:09;15.83;;;9.60;;
28311;SDS011;15572;48.810;9.148;2022-12-07T03:31:10;16.03;;;8.83;;
28311;SDS011;15572;48.810;9.148;2022-12-07T03:36:11;14.37;;;9.10;;
28311;SDS011;15572;48.810;9.148;2022-12-07T03:41:14;12.43;;;8.20;;
28311;SDS011;15572;48.810;9.148;2022-12-07T03:46:17;14.47;;;8.80;;
28311;SDS011;15572;48.810;9.148;2022-12-07T03:51:21;14.57;;;8.80;;
28311;SDS011;15572;48.810;9.148;2022-12-07T03:56:21;13.00;;;8.60;;
28311;SDS011;15572;48.810;9.148;2022-12-07T04:01:20;11.47;;;7.93;;
28311;SDS011;15572;48.810;9.148;2022-12-07T04:06:19;13.73;;;8.00;;
28311;SDS011;15572;48.810;9.148;2022-12-07T04:11:15;11.33;;;7.27;;
28311;SDS011;15572;48.810;9.148;2022-12-07T04:16:12;8.77;;;5.60;;
28311;SDS011;15572;48.810;9.148;2022-12-07T04:21:09;10.37;;;6.47;;
28311;SDS011;15572;48.810;9.148;2022-12-07T04:26:06;8.93;;;5.50;;
28311;SDS011;15572;48.810;9.148;2022-12-07T04:31:03;6.13;;;4.40;;
28311;SDS011;15572;48.810;9.148;2022-12-07T04:36:00;5.30;;;3.60;;
28311;SDS011;15572;48.810;9.148;2022-12-07T04:40:57;5.40;;;3.77;;
28311;SDS011;15572;48.810;9.148;2022-12-07T04:45:54;4.03;;;3.23;;
28311;SDS011;15572;48.810;9.148;2022-12-07T04:50:50;6.57;;;3.80;;
28311;SDS011;15572;48.810;9.148;2022-12-07T04:55:47;5.17;;;3.77;;
28311;SDS011;15572;48.810;9.148;2022-12-07T05:00:45;4.87;;;3.50;;
28311;SDS011;15572;48.810;9.148;2022-12-07T05:05:41;6.37;;;4.10;;
28311;SDS011;15572;48.810;9.148;2022-12-07T05:10:38;7.70;;;4.63;;
28311;SDS011;15572;48.810;9.148;2022-12-07T05:15:34;6.97;;;4.67;;
28311;SDS011;15572;48.810;9.148;2022-12-07T05:20:32;6.13;;;4.60;;
28311;SDS011;15572;48.810;9.148;2022-12-07T05:25:28;5.67;;;4.27;;
28311;SDS011;15572;48.810;9.148;2022-12-07T05:30:25;8.23;;;5.30;;
28311;SDS011;15572;48.810;9.148;2022-12-07T05:35:22;9.80;;;6.53;;
28311;SDS011;15572;48.810;9.148;2022-12-07T05:40:20;10.53;;;7.27;;
28311;SDS011;15572;48.810;9.148;2022-12-07T05:45:17;12.03;;;8.00;;
28311;SDS011;15572;48.810;9.148;2022-12-07T05:50:13;11.07;;;7.27;;
28311;SDS011;15572;48.810;9.148;2022-12-07T05:55:10;10.40;;;7.07;;
28311;SDS011;15572;48.810;9.148;2022-12-07T06:00:09;10.97;;;6.93;;
28311;SDS011;15572;48.810;9.148;2022-12-07T06:05:07;11.77;;;7.20;;
28311;SDS011;15572;48.810;9.148;2022-12-07T06:10:04;12.43;;;7.73;;
28311;SDS011;15572;48.810;9.148;2022-12-07T06:15:01;12.17;;;7.57;;
28311;SDS011;15572;48.810;9.148;2022-12-07T06:19:59;11.03;;;7.50;;
28311;SDS011;15572;48.810;9.148;2022-12-07T06:24:55;24.23;;;13.83;;
28311;SDS011;15572;48.810;9.148;2022-12-07T06:29:51;24.17;;;15.30;;
28311;SDS011;15572;48.810;9.148;2022-12-07T06:34:48;13.47;;;9.20;;
28311;SDS011;15572;48.810;9.148;2022-12-07T06:39:46;13.40;;;7.30;;
28311;SDS011;15572;48.810;9.148;2022-12-07T06:44:42;9.03;;;6.07;;
28311;SDS011;15572;48.810;9.148;2022-12-07T06:49:39;6.80;;;4.80;;
28311;SDS011;15572;48.810;9.148;2022-12-07T06:54:35;8.87;;;5.57;;
28311;SDS011;15572;48.810;9.148;2022-12-07T06:59:33;9.70;;;5.23;;
28311;SDS011;15572;48.810;9.148;2022-12-07T07:04:30;9.23;;;5.60;;
28311;SDS011;15572;48.810;9.148;2022-12-07T07:09:26;9.00;;;5.60;;
28311;SDS011;15572;48.810;9.148;2022-12-07T07:14:23;8.30;;;4.20;;
28311;SDS011;15572;48.810;9.148;2022-12-07T07:19:21;6.87;;;4.60;;
28311;SDS011;15572;48.810;9.148;2022-12-07T07:24:17;7.33;;;4.13;;
28311;SDS011;15572;48.810;9.148;2022-12-07T07:29:14;8.93;;;4.33;;
28311;SDS011;15572;48.810;9.148;2022-12-07T07:34:11;6.77;;;4.20;;
28311;SDS011;15572;48.810;9.148;2022-12-07T07:39:09;6.77;;;4.17;;
28311;SDS011;15572;48.810;9.148;2022-12-07T07:44:07;7.63;;;4.33;;
28311;SDS011;15572;48.810;9.148;2022-12-07T07:49:04;6.67;;;4.43;;
28311;SDS011;15572;48.810;9.148;2022-12-07T07:54:00;6.70;;;4.50;;
28311;SDS011;15572;48.810;9.148;2022-12-07T07:58:58;5.87;;;4.60;;
28311;SDS011;15572;48.810;9.148;2022-12-07T08:03:55;7.50;;;5.10;;
28311;SDS011;15572;48.810;9.148;2022-12-07T08:08:51;7.27;;;4.60;;
28311;SDS011;15572;48.810;9.148;2022-12-07T08:13:48;8.80;;;4.70;;
28311;SDS011;15572;48.810;9.148;2022-12-07T08:18:46;6.60;;;4.40;;
28311;SDS011;15572;48.810;9.148;2022-12-07T08:23:42;6.80;;;4.30;;
28311;SDS011;15572;48.810;9.148;2022-12-07T08:28:39;7.83;;;4.37;;
28311;SDS011;15572;48.810;9.148;2022-12-07T08:33:36;9.23;;;4.57;;
28311;SDS011;15572;48.810;9.148;2022-12-07T08:38:35;7.90;;;4.87;;
28311;SDS011;15572;48.810;9.148;2022-12-07T08:43:33;6.60;;;4.07;;
28311;SDS011;15572;48.810;9.148;2022-12-07T08:48:30;6.37;;;4.07;;
28311;SDS011;15572;48.810;9.148;2022-12-07T08:53:27;7.27;;;4.50;;
28311;SDS011;15572;48.810;9.148;2022-12-07T08:58:25;9.27;;;4.80;;
28311;SDS011;15572;48.810;9.148;2022-12-07T09:03:22;5.90;;;4.07;;
28311;SDS011;15572;48.810;9.148;2022-12-07T09:08:19;6.63;;;4.20;;
28311;SDS011;15572;48.810;9.148;2022-12-07T09:13:16;5.97;;;3.33;;
28311;SDS011;15572;48.810;9.148;2022-12-07T09:18:14;4.27;;;3.10;;
28311;SDS011;15572;48.810;9.148;2022-12-07T09:23:11;5.43;;;3.60;;
28311;SDS011;15572;48.810;9.148;2022-12-07T09:28:07;5.63;;;3.60;;
28311;SDS011;15572;48.810;9.148;2022-12-07T09:33:04;5.87;;;3.60;;
28311;SDS011;15572;48.810;9.148;2022-12-07T09:38:02;5.47;;;3.43;;
28311;SDS011;15572;48.810;9.148;2022-12-07T09:42:58;5.77;;;3.70;;
28311;SDS011;15572;48.810;9.148;2022-12-07T09:47:55;6.90;;;3.40;;
28311;SDS011;15572;48.810;9.148;2022-12-07T09:52:52;5.87;;;2.93;;
28311;SDS011;15572;48.810;9.148;2022-12-07T09:57:53;6.17;;;2.50;;
28311;SDS011;15572;48.810;9.148;2022-12-07T10:02:52;5.80;;;3.63;;
28311;SDS011;15572;48.810;9.148;2022-12-07T10:07:51;5.60;;;3.50;;
28311;SDS011;15572;48.810;9.148;2022-12-07T10:12:53;5.87;;;3.60;;
28311;SDS011;15572;48.810;9.148;2022-12-07T10:17:51;5.83;;;4.23;;
28311;SDS011;15572;48.810;9.148;2022-12-07T10:22:59;6.27;;;4.53;;
28311;SDS011;15572;48.810;9.148;2022-12-07T10:27:59;7.10;;;4.40;;
28311;SDS011;15572;48.810;9.148;2022-12-07T10:32:57;7.63;;;4.60;;
28311;SDS011;15572;48.810;9.148;2022-12-07T10:37:55;11.80;;;5.00;;
28311;SDS011;15572;48.810;9.148;2022-12-07T10:48:15;6.50;;;4.30;;
28311;SDS011;15572;48.810;9.148;2022-12-07T10:53:31;6.77;;;4.13;;
28311;SDS011;15572;48.810;9.148;2022-12-07T10:58:50;6.50;;;3.93;;
28311;SDS011;15572;48.810;9.148;2022-12-07T11:04:03;5.47;;;3.57;;
28311;SDS011;15572;48.810;9.148;2022-12-07T11:09:31;4.23;;;3.10;;
28311;SDS011;15572;48.810;9.148;2022-12-07T11:14:44;4.83;;;3.40;;
28311;SDS011;15572;48.810;9.148;2022-12-07T11:19:52;4.30;;;3.17;;
28311;SDS011;15572;48.810;9.148;2022-12-07T11:24:59;4.07;;;3.10;;
28311;SDS011;15572;48.810;9.148;2022-12-07T11:30:13;4.93;;;3.40;;
28311;SDS011;15572;48.810;9.148;2022-12-07T11:35:18;4.40;;;3.30;;
28311;SDS011;15572;48.810;9.148;2022-12-07T11:40:22;9.03;;;4.50;;
28311;SDS011;15572;48.810;9.148;2022-12-07T11:45:26;6.33;;;4.60;;
28311;SDS011;15572;48.810;9.148;2022-12-07T11:50:26;6.37;;;3.53;;
28311;SDS011;15572;48.810;9.148;2022-12-07T11:55:29;7.03;;;4.70;;
28311;SDS011;15572;48.810;9.148;2022-12-07T12:00:40;7.70;;;5.57;;
28311;SDS011;15572;48.810;9.148;2022-12-07T12:05:37;9.33;;;5.50;;
28311;SDS011;15572;48.810;9.148;2022-12-07T12:10:37;8.73;;;6.23;;
28311;SDS011;15572;48.810;9.148;2022-12-07T12:15:51;8.53;;;5.87;;
28311;SDS011;15572;48.810;9.148;2022-12-07T12:21:04;13.10;;;6.20;;
28311;SDS011;15572;48.810;9.148;2022-12-07T12:26:06;7.13;;;5.27;;
28311;SDS011;15572;48.810;9.148;2022-12-07T12:31:11;10.03;;;5.33;;
28311;SDS011;15572;48.810;9.148;2022-12-07T12:36:20;10.10;;;6.03;;
28311;SDS011;15572;48.810;9.148;2022-12-07T12:47:03;8.50;;;6.10;;
28311;SDS011;15572;48.810;9.148;2022-12-07T12:52:00;8.37;;;5.67;;
28311;SDS011;15572;48.810;9.148;2022-12-07T12:57:18;8.43;;;6.33;;
28311;SDS011;15572;48.810;9.148;2022-12-07T13:02:24;2.90;;;2.17;;
28311;SDS011;15572;48.810;9.148;2022-12-07T13:12:56;7.63;;;5.53;;
28311;SDS011;15572;48.810;9.148;2022-12-07T13:17:59;7.53;;;5.33;;
28311;SDS011;15572;48.810;9.148;2022-12-07T13:23:00;4.27;;;3.13;;
28311;SDS011;15572;48.810;9.148;2022-12-07T13:27:59;7.63;;;5.80;;
28311;SDS011;15572;48.810;9.148;2022-12-07T13:32:59;8.03;;;4.90;;
28311;SDS011;15572;48.810;9.148;2022-12-07T13:37:56;7.10;;;4.80;;
28311;SDS011;15572;48.810;9.148;2022-12-07T13:42:59;11.13;;;6.50;;
28311;SDS011;15572;48.810;9.148;2022-12-07T13:47:57;7.67;;;5.70;;
28311;SDS011;15572;48.810;9.148;2022-12-07T13:52:57;10.77;;;6.30;;
28311;SDS011;15572;48.810;9.148;2022-12-07T13:57:55;11.20;;;6.03;;
28311;SDS011;15572;48.810;9.148;2022-12-07T14:02:55;5.97;;;3.80;;
28311;SDS011;15572;48.810;9.148;2022-12-07T14:07:56;9.57;;;6.53;;
28311;SDS011;15572;48.810;9.148;2022-12-07T14:12:54;8.47;;;5.70;;
28311;SDS011;15572;48.810;9.148;2022-12-07T14:17:51;8.13;;;5.67;;
28311;SDS011;15572;48.810;9.148;2022-12-07T14:22:53;10.13;;;6.40;;
28311;SDS011;15572;48.810;9.148;2022-12-07T14:27:56;10.97;;;6.57;;
28311;SDS011;15572;48.810;9.148;2022-12-07T14:32:54;9.43;;;6.50;;
28311;SDS011;15572;48.810;9.148;2022-12-07T14:37:53;9.63;;;5.93;;
28311;SDS011;15572;48.810;9.148;2022-12-07T14:42:53;9.97;;;6.73;;
28311;SDS011;15572;48.810;9.148;2022-12-07T14:47:53;9.80;;;6.60;;
28311;SDS011;15572;48.810;9.148;2022-12-07T14:52:50;12.93;;;6.47;;
28311;SDS011;15572;48.810;9.148;2022-12-07T14:57:51;9.57;;;6.50;;
28311;SDS011;15572;48.810;9.148;2022-12-07T15:02:47;9.80;;;6.13;;
28311;SDS011;15572;48.810;9.148;2022-12-07T15:07:45;8.63;;;6.00;;
28311;SDS011;15572;48.810;9.148;2022-12-07T15:12:42;7.50;;;5.53;;
28311;SDS011;15572;48.810;9.148;2022-12-07T15:17:40;10.53;;;6.07;;
28311;SDS011;15572;48.810;9.148;2022-12-07T15:22:36;9.67;;;6.50;;
28311;SDS011;15572;48.810;9.148;2022-12-07T15:27:33;9.90;;;5.93;;
28311;SDS011;15572;48.810;9.148;2022-12-07T15:32:30;10.20;;;6.50;;
28311;SDS011;15572;48.810;9.148;2022-12-07T15:37:28;10.60;;;6.90;;
28311;SDS011;15572;48.810;9.148;2022-12-07T15:42:24;14.67;;;7.77;;
28311;SDS011;15572;48.810;9.148;2022-12-07T15:47:21;10.53;;;6.90;;
28311;SDS011;15572;48.810;9.148;2022-12-07T15:52:17;14.20;;;8.17;;
28311;SDS011;15572;48.810;9.148;2022-12-07T15:57:15;11.37;;;7.40;;
28311;SDS011;15572;48.810;9.148;2022-12-07T16:02:12;11.87;;;6.93;;
28311;SDS011;15572;48.810;9.148;2022-12-07T16:07:09;10.77;;;6.53;;
28311;SDS011;15572;48.810;9.148;2022-12-07T16:12:06;13.17;;;7.67;;
28311;SDS011;15572;48.810;9.148;2022-12-07T16:17:05;15.03;;;8.67;;
28311;SDS011;15572;48.810;9.148;2022-12-07T16:22:03;15.30;;;9.53;;
28311;SDS011;15572;48.810;9.148;2022-12-07T16:27:00;14.87;;;8.83;;
28311;SDS011;15572;48.810;9.148;2022-12-07T16:31:56;16.53;;;9.43;;
28311;SDS011;15572;48.810;9.148;2022-12-07T16:36:54;15.77;;;8.83;;
28311;SDS011;15572;48.810;9.148;2022-12-07T16:41:51;17.40;;;9.70;;
28311;SDS011;15572;48.810;9.148;2022-12-07T16:46:48;17.63;;;9.90;;
28311;SDS011;15572;48.810;9.148;2022-12-07T16:51:45;14.07;;;7.40;;
28311;SDS011;15572;48.810;9.148;2022-12-07T16:56:43;16.00;;;8.20;;
28311;SDS011;15572;48.810;9.148;2022-12-07T17:01:40;14.67;;;7.87;;
28311;SDS011;15572;48.810;9.148;2022-12-07T17:06:36;18.63;;;9.83;;
28311;SDS011;15572;48.810;9.148;2022-12-07T17:11:33;17.57;;;9.73;;
28311;SDS011;15572;48.810;9.148;2022-12-07T17:16:31;15.60;;;9.53;;
28311;SDS011;15572;48.810;9.148;2022-12-07T17:21:28;15.17;;;7.43;;
28311;SDS011;15572;48.810;9.148;2022-12-07T17:26:25;12.77;;;7.60;;
28311;SDS011;15572;48.810;9.148;2022-12-07T17:31:23;13.67;;;7.77;;
28311;SDS011;15572;48.810;9.148;2022-12-07T17:36:22;11.60;;;7.47;;
28311;SDS011;15572;48.810;9.148;2022-12-07T17:41:21;11.37;;;6.97;;
28311;SDS011;15572;48.810;9.148;2022-12-07T17:46:45;17.50;;;9.37;;
28311;SDS011;15572;48.810;9.148;2022-12-07T17:51:44;17.87;;;9.80;;
28311;SDS011;15572;48.810;9.148;2022-12-07T17:56:58;18.40;;;10.27;;
28311;SDS011;15572;48.810;9.148;2022-12-07T18:01:54;13.40;;;7.63;;
28311;SDS011;15572;48.810;9.148;2022-12-07T18:06:52;17.60;;;10.17;;
28311;SDS011;15572;48.810;9.148;2022-12-07T18:11:49;16.87;;;8.37;;
28311;SDS011;15572;48.810;9.148;2022-12-07T18:16:45;16.40;;;10.37;;
28311;SDS011;15572;48.810;9.148;2022-12-07T18:21:43;16.20;;;9.63;;
28311;SDS011;15572;48.810;9.148;2022-12-07T18:26:42;17.00;;;9.47;;
28311;SDS011;15572;48.810;9.148;2022-12-07T18:31:41;13.03;;;7.97;;
28311;SDS011;15572;48.810;9.148;2022-12-07T18:36:39;16.50;;;9.83;;
28311;SDS011;15572;48.810;9.148;2022-12-07T18:41:37;14.43;;;8.07;;
28311;SDS011;15572;48.810;9.148;2022-12-07T18:46:35;16.00;;;9.47;;
28311;SDS011;15572;48.810;9.148;2022-12-07T18:51:32;20.33;;;11.00;;
28311;SDS011;15572;48.810;9.148;2022-12-07T18:56:28;17.43;;;8.67;;
28311;SDS011;15572;48.810;9.148;2022-12-07T19:01:26;14.83;;;8.83;;
28311;SDS011;15572;48.810;9.148;2022-12-07T19:06:25;13.47;;;8.50;;
28311;SDS011;15572;48.810;9.148;2022-12-07T19:11:23;29.67;;;14.00;;
28311;SDS011;15572;48.810;9.148;2022-12-07T19:16:37;16.40;;;9.23;;
28311;SDS011;15572;48.810;9.148;2022-12-07T19:21:36;14.83;;;8.77;;
28311;SDS011;15572;48.810;9.148;2022-12-07T19:26:32;16.70;;;10.00;;
28311;SDS011;15572;48.810;9.148;2022-12-07T19:31:29;17.30;;;10.47;;
28311;SDS011;15572;48.810;9.148;2022-12-07T19:36:26;15.93;;;10.00;;
28311;SDS011;15572;48.810;9.148;2022-12-07T19:41:24;13.93;;;8.07;;
28311;SDS011;15572;48.810;9.148;2022-12-07T19:46:30;13.47;;;8.27;;
28311;SDS011;15572;48.810;9.148;2022-12-07T19:51:27;14.70;;;8.80;;
28311;SDS011;15572;48.810;9.148;2022-12-07T19:56:26;23.47;;;15.13;;
28311;SDS011;15572;48.810;9.148;2022-12-07T20:01:23;22.93;;;14.77;;
28311;SDS011;15572;48.810;9.148;2022-12-07T20:06:20;20.07;;;13.43;;
28311;SDS011;15572;48.810;9.148;2022-12-07T20:11:18;15.57;;;9.77;;
28311;SDS011;15572;48.810;9.148;2022-12-07T20:16:34;15.30;;;9.57;;
28311;SDS011;15572;48.810;9.148;2022-12-07T20:21:31;19.63;;;11.17;;
28311;SDS011;15572;48.810;9.148;2022-12-07T20:26:28;14.53;;;9.53;;
28311;SDS011;15572;48.810;9.148;2022-12-07T20:31:24;14.70;;;8.63;;
28311;SDS011;15572;48.810;9.148;2022-12-07T20:36:22;12.43;;;8.13;;
28311;SDS011;15572;48.810;9.148;2022-12-07T20:41:19;13.93;;;8.23;;
28311;SDS011;15572;48.810;9.148;2022-12-07T20:46:33;14.83;;;9.50;;
28311;SDS011;15572;48.810;9.148;2022-12-07T20:51:31;15.50;;;9.03;;
28311;SDS011;15572;48.810;9.148;2022-12-07T20:56:28;12.53;;;8.27;;
28311;SDS011;15572;48.810;9.148;2022-12-07T21:01:26;12.53;;;7.90;;
28311;SDS011;15572;48.810;9.148;2022-12-07T21:06:23;12.60;;;8.17;;
28311;SDS011;15572;48.810;9.148;2022-12-07T21:11:21;11.93;;;7.93;;
28311;SDS011;15572;48.810;9.148;2022-12-07T21:16:20;11.87;;;8.23;;
28311;SDS011;15572;48.810;9.148;2022-12-07T21:21:18;16.60;;;9.03;;
28311;SDS011;15572;48.810;9.148;2022-12-07T21:26:15;11.37;;;7.50;;
28311;SDS011;15572;48.810;9.148;2022-12-07T21:31:15;9.77;;;6.90;;
28311;SDS011;15572;48.810;9.148;2022-12-07T21:36:12;11.63;;;7.53;;
28311;SDS011;15572;48.810;9.148;2022-12-07T21:41:11;11.87;;;8.60;;
28311;SDS011;15572;48.810;9.148;2022-12-07T21:46:09;12.07;;;6.97;;
28311;SDS011;15572;48.810;9.148;2022-12-07T21:51:09;10.67;;;6.70;;
28311;SDS011;15572;48.810;9.148;2022-12-07T21:56:09;11.60;;;7.00;;
28311;SDS011;15572;48.810;9.148;2022-12-07T22:01:13;14.57;;;8.40;;
28311;SDS011;15572;48.810;9.148;2022-12-07T22:06:12;12.60;;;7.60;;
28311;SDS011;15572;48.810;9.148;2022-12-07T22:11:10;12.90;;;8.10;;
28311;SDS011;15572;48.810;9.148;2022-12-07T22:16:07;14.63;;;8.87;;
28311;SDS011;15572;48.810;9.148;2022-12-07T22:21:04;13.47;;;6.73;;
28311;SDS011;15572;48.810;9.148;2022-12-07T22:26:04;10.70;;;7.33;;
28311;SDS011;15572;48.810;9.148;2022-12-07T22:31:02;12.03;;;6.70;;
28311;SDS011;15572;48.810;9.148;2022-12-07T22:35:59;9.83;;;6.33;;
28311;SDS011;15572;48.810;9.148;2022-12-07T22:40:55;10.47;;;6.27;;
28311;SDS011;15572;48.810;9.148;2022-12-07T22:45:54;8.80;;;5.73;;
28311;SDS011;15572;48.810;9.148;2022-12-07T22:50:52;9.60;;;5.60;;
28311;SDS011;15572;48.810;9.148;2022-12-07T22:55:49;12.53;;;7.47;;
28311;SDS011;15572;48.810;9.148;2022-12-07T23:00:46;9.17;;;6.10;;
28311;SDS011;15572;48.810;9.148;2022-12-07T23:05:45;8.33;;;5.53;;
28311;SDS011;15572;48.810;9.148;2022-12-07T23:10:43;7.30;;;5.50;;
28311;SDS011;15572;48.810;9.148;2022-12-07T23:15:40;8.87;;;6.00;;
28311;SDS011;15572;48.810;9.148;2022-12-07T23:20:37;8.63;;;5.73;;
28311;SDS011;15572;48.810;9.148;2022-12-07T23:25:35;12.73;;;6.90;;
28311;SDS011;15572;48.810;9.148;2022-12-07T23:30:31;11.30;;;7.53;;
28311;SDS011;15572;48.810;9.148;2022-12-07T23:35:28;11.83;;;7.50;;
28311;SDS011;15572;48.810;9.148;2022-12-07T23:40:24;13.83;;;6.80;;
28311;SDS011;15572;48.810;9.148;2022-12-07T23:45:22;10.30;;;6.43;;
28311;SDS011;15572;48.810;9.148;2022-12-07T23:50:19;9.10;;;6.13;;
28311;SDS011;15572;48.810;9.148;2022-12-07T23:55:15;11.60;;;7.13;;
